Terminal Aerodrome Forecast
Issued by NWS

Home | Current Version | Previous Version | Text Only | Print | Product List | Glossary On
Versions: 1 2 3 4 5 6 7 8 9 10 11 12 13
473
FTUS45 KRIW 061738
TAFRKS
TAF
KRKS 061738Z 0618/0718 24020G30KT P6SM VCSH SCT050 BKN070
     FM062000 07016G24KT P6SM VCTS SCT025CB BKN050
     FM070300 07013G21KT 6SM -RA SCT020 BKN035=

USA.gov is the U.S. government's official web portal to all federal, state and local government web resources and services.